sensor_id;sensor_type;location;lat;lon;timestamp;temperature;humidity
33831;DHT22;20137;48.834;8.732;2023-03-13T00:01:17;7.10;99.90
33831;DHT22;20137;48.834;8.732;2023-03-13T00:03:43;7.10;99.90
33831;DHT22;20137;48.834;8.732;2023-03-13T00:06:09;7.10;99.90
33831;DHT22;20137;48.834;8.732;2023-03-13T00:08:35;7.20;99.90
33831;DHT22;20137;48.834;8.732;2023-03-13T00:11:08;7.20;99.90
33831;DHT22;20137;48.834;8.732;2023-03-13T00:13:34;7.30;99.90
33831;DHT22;20137;48.834;8.732;2023-03-13T00:16:06;7.40;99.90
33831;DHT22;20137;48.834;8.732;2023-03-13T00:18:32;7.40;99.90
33831;DHT22;20137;48.834;8.732;2023-03-13T00:21:05;7.50;99.90
33831;DHT22;20137;48.834;8.732;2023-03-13T00:23:32;7.50;99.90
33831;DHT22;20137;48.834;8.732;2023-03-13T00:26:00;7.50;99.90
33831;DHT22;20137;48.834;8.732;2023-03-13T00:28:28;7.50;99.90
33831;DHT22;20137;48.834;8.732;2023-03-13T00:33:38;7.50;99.90
33831;DHT22;20137;48.834;8.732;2023-03-13T00:36:06;7.50;99.90
33831;DHT22;20137;48.834;8.732;2023-03-13T00:38:33;7.50;99.90
33831;DHT22;20137;48.834;8.732;2023-03-13T00:41:09;7.50;99.90
33831;DHT22;20137;48.834;8.732;2023-03-13T00:43:39;7.60;99.90
33831;DHT22;20137;48.834;8.732;2023-03-13T00:46:06;7.50;99.90
33831;DHT22;20137;48.834;8.732;2023-03-13T00:48:32;7.50;99.90
33831;DHT22;20137;48.834;8.732;2023-03-13T00:50:58;7.50;99.90
33831;DHT22;20137;48.834;8.732;2023-03-13T00:53:24;7.50;99.90
33831;DHT22;20137;48.834;8.732;2023-03-13T00:56:12;7.60;99.90
33831;DHT22;20137;48.834;8.732;2023-03-13T00:58:38;7.60;99.90
33831;DHT22;20137;48.834;8.732;2023-03-13T01:01:22;7.70;99.90
33831;DHT22;20137;48.834;8.732;2023-03-13T01:03:53;7.80;99.90
33831;DHT22;20137;48.834;8.732;2023-03-13T01:06:22;7.80;99.90
33831;DHT22;20137;48.834;8.732;2023-03-13T01:08:49;7.80;99.90
33831;DHT22;20137;48.834;8.732;2023-03-13T01:11:27;7.80;99.90
33831;DHT22;20137;48.834;8.732;2023-03-13T01:14:00;7.80;99.90
33831;DHT22;20137;48.834;8.732;2023-03-13T01:16:28;7.80;99.90
33831;DHT22;20137;48.834;8.732;2023-03-13T01:18:57;7.70;99.90
33831;DHT22;20137;48.834;8.732;2023-03-13T01:21:23;7.80;99.90
33831;DHT22;20137;48.834;8.732;2023-03-13T01:23:50;7.90;99.90
33831;DHT22;20137;48.834;8.732;2023-03-13T01:26:17;8.00;99.90
33831;DHT22;20137;48.834;8.732;2023-03-13T01:28:43;7.90;99.90
33831;DHT22;20137;48.834;8.732;2023-03-13T01:31:14;7.90;99.90
33831;DHT22;20137;48.834;8.732;2023-03-13T01:33:41;7.80;99.90
33831;DHT22;20137;48.834;8.732;2023-03-13T01:36:08;7.80;99.90
33831;DHT22;20137;48.834;8.732;2023-03-13T01:38:34;7.80;99.90
33831;DHT22;20137;48.834;8.732;2023-03-13T01:40:59;7.70;99.90
33831;DHT22;20137;48.834;8.732;2023-03-13T01:43:28;7.80;99.90
33831;DHT22;20137;48.834;8.732;2023-03-13T01:48:44;7.90;99.90
33831;DHT22;20137;48.834;8.732;2023-03-13T01:53:49;7.90;99.90
33831;DHT22;20137;48.834;8.732;2023-03-13T01:56:21;8.00;99.90
33831;DHT22;20137;48.834;8.732;2023-03-13T01:58:51;8.10;99.90
33831;DHT22;20137;48.834;8.732;2023-03-13T02:01:18;8.20;99.90
33831;DHT22;20137;48.834;8.732;2023-03-13T02:03:45;8.20;99.90
33831;DHT22;20137;48.834;8.732;2023-03-13T02:06:12;8.20;99.90
33831;DHT22;20137;48.834;8.732;2023-03-13T02:08:51;8.30;99.90
33831;DHT22;20137;48.834;8.732;2023-03-13T02:14:19;8.60;99.90
33831;DHT22;20137;48.834;8.732;2023-03-13T02:16:46;8.80;99.90
33831;DHT22;20137;48.834;8.732;2023-03-13T02:27:28;9.10;99.90
33831;DHT22;20137;48.834;8.732;2023-03-13T02:29:54;9.20;99.90
33831;DHT22;20137;48.834;8.732;2023-03-13T02:32:20;9.30;99.90
33831;DHT22;20137;48.834;8.732;2023-03-13T02:34:49;9.40;99.90
33831;DHT22;20137;48.834;8.732;2023-03-13T02:37:17;9.50;99.90
33831;DHT22;20137;48.834;8.732;2023-03-13T02:39:46;9.50;99.90
33831;DHT22;20137;48.834;8.732;2023-03-13T02:42:14;9.40;99.90
33831;DHT22;20137;48.834;8.732;2023-03-13T02:44:42;9.50;99.90
33831;DHT22;20137;48.834;8.732;2023-03-13T02:47:09;9.50;99.90
33831;DHT22;20137;48.834;8.732;2023-03-13T02:49:35;9.40;99.90
33831;DHT22;20137;48.834;8.732;2023-03-13T02:52:20;9.50;99.90
33831;DHT22;20137;48.834;8.732;2023-03-13T02:54:52;9.50;99.90
33831;DHT22;20137;48.834;8.732;2023-03-13T02:57:18;9.50;99.90
33831;DHT22;20137;48.834;8.732;2023-03-13T02:59:43;9.40;99.90
33831;DHT22;20137;48.834;8.732;2023-03-13T03:02:09;9.40;99.90
33831;DHT22;20137;48.834;8.732;2023-03-13T03:04:34;9.40;99.90
33831;DHT22;20137;48.834;8.732;2023-03-13T03:07:00;9.40;99.90
33831;DHT22;20137;48.834;8.732;2023-03-13T03:09:26;9.30;99.90
33831;DHT22;20137;48.834;8.732;2023-03-13T03:11:51;9.30;99.90
33831;DHT22;20137;48.834;8.732;2023-03-13T03:14:17;9.30;99.90
33831;DHT22;20137;48.834;8.732;2023-03-13T03:16:43;9.30;99.90
33831;DHT22;20137;48.834;8.732;2023-03-13T03:19:09;9.20;99.90
33831;DHT22;20137;48.834;8.732;2023-03-13T03:21:37;9.30;99.90
33831;DHT22;20137;48.834;8.732;2023-03-13T03:24:04;9.20;99.90
33831;DHT22;20137;48.834;8.732;2023-03-13T03:26:30;9.20;99.90
33831;DHT22;20137;48.834;8.732;2023-03-13T03:28:55;9.20;99.90
33831;DHT22;20137;48.834;8.732;2023-03-13T03:31:21;9.30;99.90
33831;DHT22;20137;48.834;8.732;2023-03-13T03:33:47;9.20;99.90
33831;DHT22;20137;48.834;8.732;2023-03-13T03:36:16;9.30;99.90
33831;DHT22;20137;48.834;8.732;2023-03-13T03:38:43;9.20;99.90
33831;DHT22;20137;48.834;8.732;2023-03-13T03:41:10;9.10;99.90
33831;DHT22;20137;48.834;8.732;2023-03-13T03:43:36;9.20;99.90
33831;DHT22;20137;48.834;8.732;2023-03-13T03:46:02;9.20;99.90
33831;DHT22;20137;48.834;8.732;2023-03-13T03:48:28;9.10;99.90
33831;DHT22;20137;48.834;8.732;2023-03-13T03:50:53;9.20;99.90
33831;DHT22;20137;48.834;8.732;2023-03-13T03:53:19;9.10;99.90
33831;DHT22;20137;48.834;8.732;2023-03-13T03:55:45;9.20;99.90
33831;DHT22;20137;48.834;8.732;2023-03-13T03:58:11;9.10;99.90
33831;DHT22;20137;48.834;8.732;2023-03-13T04:00:37;9.10;99.90
33831;DHT22;20137;48.834;8.732;2023-03-13T04:03:02;9.10;99.90
33831;DHT22;20137;48.834;8.732;2023-03-13T04:05:28;9.00;99.90
33831;DHT22;20137;48.834;8.732;2023-03-13T04:07:54;9.00;99.90
33831;DHT22;20137;48.834;8.732;2023-03-13T04:10:20;9.00;99.90
33831;DHT22;20137;48.834;8.732;2023-03-13T04:12:46;9.00;99.90
33831;DHT22;20137;48.834;8.732;2023-03-13T04:15:12;9.00;99.90
33831;DHT22;20137;48.834;8.732;2023-03-13T04:17:38;9.00;99.90
33831;DHT22;20137;48.834;8.732;2023-03-13T04:20:04;9.10;99.90
33831;DHT22;20137;48.834;8.732;2023-03-13T04:22:31;9.10;99.90
33831;DHT22;20137;48.834;8.732;2023-03-13T04:24:57;9.10;99.90
33831;DHT22;20137;48.834;8.732;2023-03-13T04:27:23;9.10;99.90
33831;DHT22;20137;48.834;8.732;2023-03-13T04:29:48;9.10;99.90
33831;DHT22;20137;48.834;8.732;2023-03-13T04:32:14;9.20;99.90
33831;DHT22;20137;48.834;8.732;2023-03-13T04:34:39;9.20;99.90
33831;DHT22;20137;48.834;8.732;2023-03-13T04:37:05;9.30;99.90
33831;DHT22;20137;48.834;8.732;2023-03-13T04:39:31;9.30;99.90
33831;DHT22;20137;48.834;8.732;2023-03-13T04:41:56;9.40;99.90
33831;DHT22;20137;48.834;8.732;2023-03-13T04:44:22;9.30;99.90
33831;DHT22;20137;48.834;8.732;2023-03-13T04:46:48;9.40;99.90
33831;DHT22;20137;48.834;8.732;2023-03-13T04:49:15;9.50;99.90
33831;DHT22;20137;48.834;8.732;2023-03-13T04:51:41;9.50;99.90
33831;DHT22;20137;48.834;8.732;2023-03-13T04:54:07;9.60;99.90
33831;DHT22;20137;48.834;8.732;2023-03-13T04:56:33;9.60;99.90
33831;DHT22;20137;48.834;8.732;2023-03-13T04:58:59;9.60;99.90
33831;DHT22;20137;48.834;8.732;2023-03-13T05:01:25;9.70;99.90
33831;DHT22;20137;48.834;8.732;2023-03-13T05:03:50;9.80;99.90
33831;DHT22;20137;48.834;8.732;2023-03-13T05:06:16;9.80;99.90
33831;DHT22;20137;48.834;8.732;2023-03-13T05:08:42;9.90;99.90
33831;DHT22;20137;48.834;8.732;2023-03-13T05:11:08;9.90;99.90
33831;DHT22;20137;48.834;8.732;2023-03-13T05:13:33;9.90;99.90
33831;DHT22;20137;48.834;8.732;2023-03-13T05:15:59;9.90;99.90
33831;DHT22;20137;48.834;8.732;2023-03-13T05:18:25;9.90;99.90
33831;DHT22;20137;48.834;8.732;2023-03-13T05:20:50;9.90;99.90
33831;DHT22;20137;48.834;8.732;2023-03-13T05:23:16;10.00;99.90
33831;DHT22;20137;48.834;8.732;2023-03-13T05:25:42;9.90;99.90
33831;DHT22;20137;48.834;8.732;2023-03-13T05:28:08;10.00;99.90
33831;DHT22;20137;48.834;8.732;2023-03-13T05:30:33;10.00;99.90
33831;DHT22;20137;48.834;8.732;2023-03-13T05:32:59;10.00;99.90
33831;DHT22;20137;48.834;8.732;2023-03-13T05:35:24;10.00;99.90
33831;DHT22;20137;48.834;8.732;2023-03-13T05:37:50;10.00;99.90
33831;DHT22;20137;48.834;8.732;2023-03-13T05:40:16;10.00;99.90
33831;DHT22;20137;48.834;8.732;2023-03-13T05:42:43;9.90;99.90
33831;DHT22;20137;48.834;8.732;2023-03-13T05:45:09;10.00;99.90
33831;DHT22;20137;48.834;8.732;2023-03-13T05:47:35;9.80;99.90
33831;DHT22;20137;48.834;8.732;2023-03-13T05:50:04;9.80;99.90
33831;DHT22;20137;48.834;8.732;2023-03-13T05:52:30;9.90;99.90
33831;DHT22;20137;48.834;8.732;2023-03-13T05:54:56;10.00;99.90
33831;DHT22;20137;48.834;8.732;2023-03-13T05:57:21;10.10;99.90
33831;DHT22;20137;48.834;8.732;2023-03-13T05:59:47;10.30;99.90
33831;DHT22;20137;48.834;8.732;2023-03-13T06:02:13;10.30;99.90
33831;DHT22;20137;48.834;8.732;2023-03-13T06:04:39;10.40;99.90
33831;DHT22;20137;48.834;8.732;2023-03-13T06:07:04;10.40;99.90
33831;DHT22;20137;48.834;8.732;2023-03-13T06:09:30;10.40;99.90
33831;DHT22;20137;48.834;8.732;2023-03-13T06:11:56;10.40;99.90
33831;DHT22;20137;48.834;8.732;2023-03-13T06:14:22;10.50;99.90
33831;DHT22;20137;48.834;8.732;2023-03-13T06:16:47;10.60;99.90
33831;DHT22;20137;48.834;8.732;2023-03-13T06:19:13;10.50;99.90
33831;DHT22;20137;48.834;8.732;2023-03-13T06:21:39;10.70;99.90
33831;DHT22;20137;48.834;8.732;2023-03-13T06:24:05;10.70;99.90
33831;DHT22;20137;48.834;8.732;2023-03-13T06:26:31;10.80;99.90
33831;DHT22;20137;48.834;8.732;2023-03-13T06:28:56;10.90;99.90
33831;DHT22;20137;48.834;8.732;2023-03-13T06:31:22;10.90;99.90
33831;DHT22;20137;48.834;8.732;2023-03-13T06:33:52;11.00;99.90
33831;DHT22;20137;48.834;8.732;2023-03-13T06:36:17;11.10;99.90
33831;DHT22;20137;48.834;8.732;2023-03-13T06:38:43;11.10;99.90
33831;DHT22;20137;48.834;8.732;2023-03-13T06:41:09;11.20;99.90
33831;DHT22;20137;48.834;8.732;2023-03-13T06:43:34;11.10;99.90
33831;DHT22;20137;48.834;8.732;2023-03-13T06:46:04;11.20;99.90
33831;DHT22;20137;48.834;8.732;2023-03-13T06:48:29;11.10;99.90
33831;DHT22;20137;48.834;8.732;2023-03-13T06:50:55;11.20;99.90
33831;DHT22;20137;48.834;8.732;2023-03-13T06:53:21;11.30;99.90
33831;DHT22;20137;48.834;8.732;2023-03-13T06:55:47;11.30;99.90
33831;DHT22;20137;48.834;8.732;2023-03-13T06:58:17;11.30;99.90
33831;DHT22;20137;48.834;8.732;2023-03-13T07:00:42;11.30;99.90
33831;DHT22;20137;48.834;8.732;2023-03-13T07:03:09;11.30;99.90
33831;DHT22;20137;48.834;8.732;2023-03-13T07:05:35;11.40;99.90
33831;DHT22;20137;48.834;8.732;2023-03-13T07:08:01;11.30;99.90
33831;DHT22;20137;48.834;8.732;2023-03-13T07:10:29;11.30;99.90
33831;DHT22;20137;48.834;8.732;2023-03-13T07:12:55;11.40;99.90
33831;DHT22;20137;48.834;8.732;2023-03-13T07:15:20;11.40;99.90
33831;DHT22;20137;48.834;8.732;2023-03-13T07:17:46;11.40;99.90
33831;DHT22;20137;48.834;8.732;2023-03-13T07:20:12;11.40;99.90
33831;DHT22;20137;48.834;8.732;2023-03-13T07:22:37;11.50;99.90
33831;DHT22;20137;48.834;8.732;2023-03-13T07:25:04;11.60;99.90
33831;DHT22;20137;48.834;8.732;2023-03-13T07:27:30;11.50;99.90
33831;DHT22;20137;48.834;8.732;2023-03-13T07:29:56;11.60;99.90
33831;DHT22;20137;48.834;8.732;2023-03-13T07:32:22;11.60;99.90
33831;DHT22;20137;48.834;8.732;2023-03-13T07:34:47;11.60;99.90
33831;DHT22;20137;48.834;8.732;2023-03-13T07:37:14;11.60;99.90
33831;DHT22;20137;48.834;8.732;2023-03-13T07:39:41;11.80;99.90
33831;DHT22;20137;48.834;8.732;2023-03-13T07:42:11;11.90;99.90
33831;DHT22;20137;48.834;8.732;2023-03-13T07:44:37;12.00;99.90
33831;DHT22;20137;48.834;8.732;2023-03-13T07:47:03;12.00;99.90
33831;DHT22;20137;48.834;8.732;2023-03-13T07:49:29;12.10;99.90
33831;DHT22;20137;48.834;8.732;2023-03-13T07:51:54;12.20;99.90
33831;DHT22;20137;48.834;8.732;2023-03-13T07:54:20;12.20;99.90
33831;DHT22;20137;48.834;8.732;2023-03-13T07:56:46;12.30;99.90
33831;DHT22;20137;48.834;8.732;2023-03-13T07:59:11;12.30;99.90
33831;DHT22;20137;48.834;8.732;2023-03-13T08:01:37;12.40;99.90
33831;DHT22;20137;48.834;8.732;2023-03-13T08:04:03;12.50;99.90
33831;DHT22;20137;48.834;8.732;2023-03-13T08:06:31;12.50;99.90
33831;DHT22;20137;48.834;8.732;2023-03-13T08:08:58;12.60;99.90
33831;DHT22;20137;48.834;8.732;2023-03-13T08:11:25;12.50;99.90
33831;DHT22;20137;48.834;8.732;2023-03-13T08:13:52;12.70;99.90
33831;DHT22;20137;48.834;8.732;2023-03-13T08:16:29;12.70;99.90
33831;DHT22;20137;48.834;8.732;2023-03-13T08:18:57;12.80;99.90
33831;DHT22;20137;48.834;8.732;2023-03-13T08:21:25;12.90;99.90
33831;DHT22;20137;48.834;8.732;2023-03-13T08:23:56;13.10;99.90
33831;DHT22;20137;48.834;8.732;2023-03-13T08:26:26;13.10;99.90
33831;DHT22;20137;48.834;8.732;2023-03-13T08:28:57;13.20;99.90
33831;DHT22;20137;48.834;8.732;2023-03-13T08:31:25;13.30;99.90
33831;DHT22;20137;48.834;8.732;2023-03-13T08:33:51;13.40;99.90
33831;DHT22;20137;48.834;8.732;2023-03-13T08:36:23;13.50;99.90
33831;DHT22;20137;48.834;8.732;2023-03-13T08:38:50;13.50;99.90
33831;DHT22;20137;48.834;8.732;2023-03-13T08:41:21;13.30;99.90
33831;DHT22;20137;48.834;8.732;2023-03-13T08:43:47;13.30;99.90
33831;DHT22;20137;48.834;8.732;2023-03-13T08:46:14;13.20;99.90
33831;DHT22;20137;48.834;8.732;2023-03-13T08:48:40;13.20;99.90
33831;DHT22;20137;48.834;8.732;2023-03-13T08:51:06;13.20;99.90
33831;DHT22;20137;48.834;8.732;2023-03-13T08:53:33;13.30;99.90
33831;DHT22;20137;48.834;8.732;2023-03-13T08:55:59;13.30;99.90
33831;DHT22;20137;48.834;8.732;2023-03-13T08:58:26;13.20;99.90
33831;DHT22;20137;48.834;8.732;2023-03-13T09:00:51;13.20;99.90
33831;DHT22;20137;48.834;8.732;2023-03-13T09:03:17;13.10;99.90
33831;DHT22;20137;48.834;8.732;2023-03-13T09:05:43;13.20;99.90
33831;DHT22;20137;48.834;8.732;2023-03-13T09:08:11;13.20;99.90
33831;DHT22;20137;48.834;8.732;2023-03-13T09:10:36;13.30;99.90
33831;DHT22;20137;48.834;8.732;2023-03-13T09:13:02;13.40;99.90
33831;DHT22;20137;48.834;8.732;2023-03-13T09:15:28;13.50;99.90
33831;DHT22;20137;48.834;8.732;2023-03-13T09:17:54;13.50;99.90
33831;DHT22;20137;48.834;8.732;2023-03-13T09:20:19;13.60;99.90
33831;DHT22;20137;48.834;8.732;2023-03-13T09:22:45;13.40;99.90
33831;DHT22;20137;48.834;8.732;2023-03-13T09:25:12;13.40;99.90
33831;DHT22;20137;48.834;8.732;2023-03-13T09:27:38;13.30;99.90
33831;DHT22;20137;48.834;8.732;2023-03-13T09:30:05;13.40;99.90
33831;DHT22;20137;48.834;8.732;2023-03-13T09:32:31;13.60;99.90
33831;DHT22;20137;48.834;8.732;2023-03-13T09:34:57;13.70;99.90
33831;DHT22;20137;48.834;8.732;2023-03-13T09:37:24;13.80;99.90
33831;DHT22;20137;48.834;8.732;2023-03-13T09:39:50;13.90;99.90
33831;DHT22;20137;48.834;8.732;2023-03-13T09:42:18;14.00;99.90
33831;DHT22;20137;48.834;8.732;2023-03-13T09:45:07;14.10;99.90
33831;DHT22;20137;48.834;8.732;2023-03-13T09:47:43;14.20;99.90
33831;DHT22;20137;48.834;8.732;2023-03-13T09:50:36;14.30;99.90
33831;DHT22;20137;48.834;8.732;2023-03-13T09:53:36;14.50;99.90
33831;DHT22;20137;48.834;8.732;2023-03-13T09:56:05;14.60;99.90
33831;DHT22;20137;48.834;8.732;2023-03-13T09:58:36;14.60;99.90
33831;DHT22;20137;48.834;8.732;2023-03-13T10:01:05;14.60;99.90
33831;DHT22;20137;48.834;8.732;2023-03-13T10:04:33;14.80;99.90
33831;DHT22;20137;48.834;8.732;2023-03-13T10:06:42;15.00;99.90
33831;DHT22;20137;48.834;8.732;2023-03-13T10:09:30;15.00;99.90
33831;DHT22;20137;48.834;8.732;2023-03-13T10:12:06;15.00;99.90
33831;DHT22;20137;48.834;8.732;2023-03-13T10:14:38;15.00;99.90
33831;DHT22;20137;48.834;8.732;2023-03-13T10:17:30;15.00;99.90
33831;DHT22;20137;48.834;8.732;2023-03-13T10:20:22;15.00;99.90
33831;DHT22;20137;48.834;8.732;2023-03-13T10:22:46;14.80;99.90
33831;DHT22;20137;48.834;8.732;2023-03-13T10:25:32;14.90;99.90
33831;DHT22;20137;48.834;8.732;2023-03-13T10:27:59;14.90;99.90
33831;DHT22;20137;48.834;8.732;2023-03-13T10:30:28;15.00;99.90
33831;DHT22;20137;48.834;8.732;2023-03-13T10:32:58;15.00;99.90
33831;DHT22;20137;48.834;8.732;2023-03-13T10:35:31;15.40;99.90
33831;DHT22;20137;48.834;8.732;2023-03-13T10:38:05;15.80;99.90
33831;DHT22;20137;48.834;8.732;2023-03-13T10:40:33;15.70;99.90
33831;DHT22;20137;48.834;8.732;2023-03-13T10:43:04;15.90;99.90
33831;DHT22;20137;48.834;8.732;2023-03-13T10:45:34;16.20;99.90
33831;DHT22;20137;48.834;8.732;2023-03-13T10:48:03;16.30;99.90
33831;DHT22;20137;48.834;8.732;2023-03-13T10:50:34;16.30;99.90
33831;DHT22;20137;48.834;8.732;2023-03-13T10:56:03;16.30;99.90
33831;DHT22;20137;48.834;8.732;2023-03-13T11:03:50;15.70;99.90
33831;DHT22;20137;48.834;8.732;2023-03-13T11:06:30;15.60;99.90
33831;DHT22;20137;48.834;8.732;2023-03-13T11:09:17;15.70;99.90
33831;DHT22;20137;48.834;8.732;2023-03-13T11:11:52;15.90;99.90
33831;DHT22;20137;48.834;8.732;2023-03-13T11:14:20;15.80;99.90
33831;DHT22;20137;48.834;8.732;2023-03-13T11:19:34;16.10;99.90
33831;DHT22;20137;48.834;8.732;2023-03-13T11:30:53;16.50;99.90
33831;DHT22;20137;48.834;8.732;2023-03-13T11:36:59;16.70;99.90
33831;DHT22;20137;48.834;8.732;2023-03-13T11:40:02;16.60;99.90
33831;DHT22;20137;48.834;8.732;2023-03-13T11:50:59;17.50;99.90
33831;DHT22;20137;48.834;8.732;2023-03-13T11:56:14;17.80;99.90
33831;DHT22;20137;48.834;8.732;2023-03-13T12:01:24;17.70;99.90
33831;DHT22;20137;48.834;8.732;2023-03-13T12:09:26;17.30;99.90
33831;DHT22;20137;48.834;8.732;2023-03-13T12:15:33;18.00;99.90
33831;DHT22;20137;48.834;8.732;2023-03-13T12:21:02;17.90;99.90
33831;DHT22;20137;48.834;8.732;2023-03-13T12:26:09;17.80;99.90
33831;DHT22;20137;48.834;8.732;2023-03-13T12:28:42;18.00;99.90
33831;DHT22;20137;48.834;8.732;2023-03-13T12:31:34;18.10;99.90
33831;DHT22;20137;48.834;8.732;2023-03-13T12:36:51;18.40;99.90
33831;DHT22;20137;48.834;8.732;2023-03-13T12:39:39;18.50;99.90
33831;DHT22;20137;48.834;8.732;2023-03-13T12:44:33;18.70;99.90
33831;DHT22;20137;48.834;8.732;2023-03-13T12:47:43;18.70;99.90
33831;DHT22;20137;48.834;8.732;2023-03-13T12:58:28;18.90;99.90
33831;DHT22;20137;48.834;8.732;2023-03-13T13:00:57;19.10;99.90
33831;DHT22;20137;48.834;8.732;2023-03-13T13:06:08;19.30;99.90
33831;DHT22;20137;48.834;8.732;2023-03-13T13:16:48;19.70;99.90
33831;DHT22;20137;48.834;8.732;2023-03-13T13:20:02;19.60;99.90
33831;DHT22;20137;48.834;8.732;2023-03-13T13:25:32;19.90;99.90
33831;DHT22;20137;48.834;8.732;2023-03-13T13:28:33;19.90;99.90
33831;DHT22;20137;48.834;8.732;2023-03-13T13:30:59;20.00;99.50
33831;DHT22;20137;48.834;8.732;2023-03-13T13:38:46;20.00;99.60
33831;DHT22;20137;48.834;8.732;2023-03-13T13:43:45;19.70;99.50
33831;DHT22;20137;48.834;8.732;2023-03-13T13:46:29;19.60;99.50
33831;DHT22;20137;48.834;8.732;2023-03-13T13:52:15;19.20;99.90
33831;DHT22;20137;48.834;8.732;2023-03-13T13:54:52;18.90;99.90
33831;DHT22;20137;48.834;8.732;2023-03-13T13:57:28;18.70;99.90
33831;DHT22;20137;48.834;8.732;2023-03-13T14:00:24;18.80;99.90
33831;DHT22;20137;48.834;8.732;2023-03-13T14:02:55;18.80;99.90
33831;DHT22;20137;48.834;8.732;2023-03-13T14:05:26;18.80;99.90
33831;DHT22;20137;48.834;8.732;2023-03-13T14:08:03;18.80;99.90
33831;DHT22;20137;48.834;8.732;2023-03-13T14:13:15;18.60;99.90
33831;DHT22;20137;48.834;8.732;2023-03-13T14:15:43;18.40;99.90
33831;DHT22;20137;48.834;8.732;2023-03-13T14:18:10;18.50;99.90
33831;DHT22;20137;48.834;8.732;2023-03-13T14:21:01;18.50;99.90
33831;DHT22;20137;48.834;8.732;2023-03-13T14:23:40;18.60;99.90
33831;DHT22;20137;48.834;8.732;2023-03-13T14:26:27;18.70;99.90
33831;DHT22;20137;48.834;8.732;2023-03-13T14:28:54;19.00;99.90
33831;DHT22;20137;48.834;8.732;2023-03-13T14:31:24;19.00;99.70
33831;DHT22;20137;48.834;8.732;2023-03-13T14:33:50;19.00;99.90
33831;DHT22;20137;48.834;8.732;2023-03-13T14:36:16;19.10;99.60
33831;DHT22;20137;48.834;8.732;2023-03-13T14:38:54;18.90;99.90
33831;DHT22;20137;48.834;8.732;2023-03-13T14:41:36;18.80;99.90
33831;DHT22;20137;48.834;8.732;2023-03-13T14:44:20;18.80;99.90
33831;DHT22;20137;48.834;8.732;2023-03-13T14:46:46;18.80;99.90
33831;DHT22;20137;48.834;8.732;2023-03-13T14:49:19;18.80;99.90
33831;DHT22;20137;48.834;8.732;2023-03-13T14:51:55;18.80;99.90
33831;DHT22;20137;48.834;8.732;2023-03-13T14:54:28;18.90;99.90
33831;DHT22;20137;48.834;8.732;2023-03-13T14:59:31;18.90;99.90
33831;DHT22;20137;48.834;8.732;2023-03-13T15:02:23;18.80;99.90
33831;DHT22;20137;48.834;8.732;2023-03-13T15:05:04;18.80;99.90
33831;DHT22;20137;48.834;8.732;2023-03-13T15:07:52;18.80;99.90
33831;DHT22;20137;48.834;8.732;2023-03-13T15:10:21;18.70;99.90
33831;DHT22;20137;48.834;8.732;2023-03-13T15:12:48;18.70;99.90
33831;DHT22;20137;48.834;8.732;2023-03-13T15:15:14;18.70;99.90
33831;DHT22;20137;48.834;8.732;2023-03-13T15:17:39;18.70;99.90
33831;DHT22;20137;48.834;8.732;2023-03-13T15:20:06;18.70;99.90
33831;DHT22;20137;48.834;8.732;2023-03-13T15:22:35;18.70;99.90
33831;DHT22;20137;48.834;8.732;2023-03-13T15:25:02;18.70;99.90
33831;DHT22;20137;48.834;8.732;2023-03-13T15:27:29;18.70;99.90
33831;DHT22;20137;48.834;8.732;2023-03-13T15:29:54;18.60;99.90
33831;DHT22;20137;48.834;8.732;2023-03-13T15:32:32;18.50;99.90
33831;DHT22;20137;48.834;8.732;2023-03-13T15:34:59;18.50;99.90
33831;DHT22;20137;48.834;8.732;2023-03-13T15:37:27;18.40;99.90
33831;DHT22;20137;48.834;8.732;2023-03-13T15:39:54;18.40;99.90
33831;DHT22;20137;48.834;8.732;2023-03-13T15:42:21;18.40;99.90
33831;DHT22;20137;48.834;8.732;2023-03-13T15:44:47;18.30;99.90
33831;DHT22;20137;48.834;8.732;2023-03-13T15:47:20;18.30;99.90
33831;DHT22;20137;48.834;8.732;2023-03-13T15:49:46;18.30;99.90
33831;DHT22;20137;48.834;8.732;2023-03-13T15:52:17;18.30;99.90
33831;DHT22;20137;48.834;8.732;2023-03-13T15:54:47;18.50;99.90
33831;DHT22;20137;48.834;8.732;2023-03-13T15:57:17;18.50;99.90
33831;DHT22;20137;48.834;8.732;2023-03-13T15:59:46;18.60;99.90
33831;DHT22;20137;48.834;8.732;2023-03-13T16:02:18;18.70;99.80
33831;DHT22;20137;48.834;8.732;2023-03-13T16:04:44;18.60;99.90
33831;DHT22;20137;48.834;8.732;2023-03-13T16:07:12;18.50;99.90
33831;DHT22;20137;48.834;8.732;2023-03-13T16:09:39;18.40;99.90
33831;DHT22;20137;48.834;8.732;2023-03-13T16:12:06;18.20;99.90
33831;DHT22;20137;48.834;8.732;2023-03-13T16:14:32;18.10;99.90
33831;DHT22;20137;48.834;8.732;2023-03-13T16:16:57;18.00;99.90
33831;DHT22;20137;48.834;8.732;2023-03-13T16:19:23;17.90;99.90
33831;DHT22;20137;48.834;8.732;2023-03-13T16:21:49;17.70;99.90
33831;DHT22;20137;48.834;8.732;2023-03-13T16:24:17;17.60;99.90
33831;DHT22;20137;48.834;8.732;2023-03-13T16:26:44;17.60;99.90
33831;DHT22;20137;48.834;8.732;2023-03-13T16:29:12;17.60;99.90
33831;DHT22;20137;48.834;8.732;2023-03-13T16:31:38;17.50;99.90
33831;DHT22;20137;48.834;8.732;2023-03-13T16:34:03;17.40;99.90
33831;DHT22;20137;48.834;8.732;2023-03-13T16:36:30;17.40;99.90
33831;DHT22;20137;48.834;8.732;2023-03-13T16:39:02;17.30;99.90
33831;DHT22;20137;48.834;8.732;2023-03-13T16:41:29;17.30;99.90
33831;DHT22;20137;48.834;8.732;2023-03-13T16:43:55;17.20;99.90
33831;DHT22;20137;48.834;8.732;2023-03-13T16:46:35;17.20;99.90
33831;DHT22;20137;48.834;8.732;2023-03-13T16:49:01;17.10;99.90
33831;DHT22;20137;48.834;8.732;2023-03-13T16:51:28;17.00;99.90
33831;DHT22;20137;48.834;8.732;2023-03-13T16:53:56;16.90;99.90
33831;DHT22;20137;48.834;8.732;2023-03-13T16:56:32;16.80;99.90
33831;DHT22;20137;48.834;8.732;2023-03-13T16:59:00;16.70;99.90
33831;DHT22;20137;48.834;8.732;2023-03-13T17:01:26;16.60;99.90
33831;DHT22;20137;48.834;8.732;2023-03-13T17:03:55;16.50;99.90
33831;DHT22;20137;48.834;8.732;2023-03-13T17:06:23;16.40;99.90
33831;DHT22;20137;48.834;8.732;2023-03-13T17:08:50;16.40;99.90
33831;DHT22;20137;48.834;8.732;2023-03-13T17:11:17;16.30;99.90
33831;DHT22;20137;48.834;8.732;2023-03-13T17:13:45;16.20;99.90
33831;DHT22;20137;48.834;8.732;2023-03-13T17:16:32;16.10;99.90
33831;DHT22;20137;48.834;8.732;2023-03-13T17:18:59;16.00;99.90
33831;DHT22;20137;48.834;8.732;2023-03-13T17:21:27;15.90;99.90
33831;DHT22;20137;48.834;8.732;2023-03-13T17:23:54;15.80;99.90
33831;DHT22;20137;48.834;8.732;2023-03-13T17:26:28;15.70;99.90
33831;DHT22;20137;48.834;8.732;2023-03-13T17:28:55;15.70;99.90
33831;DHT22;20137;48.834;8.732;2023-03-13T17:31:23;15.70;99.90
33831;DHT22;20137;48.834;8.732;2023-03-13T17:33:49;15.70;99.90
33831;DHT22;20137;48.834;8.732;2023-03-13T17:38:43;15.50;99.90
33831;DHT22;20137;48.834;8.732;2023-03-13T17:41:15;15.50;99.90
33831;DHT22;20137;48.834;8.732;2023-03-13T17:43:41;15.40;99.90
33831;DHT22;20137;48.834;8.732;2023-03-13T17:48:50;15.50;99.90